Time;durP1;ratioP1;P1;durP2;ratioP2;P2;SDS_P1;SDS_P2;PMS_P1;PMS_P2;Temp;Humidity;BMP_temperature;BMP_pressure;BME280_temperature;BME280_humidity;BME280_pressure;Samples;Min_cycle;Max_cycle;Signal;HPM_P1;HPM_P2
2022/04/23 00:00:00;;;;;;;37.45;24.77;;;;;;;9.34;79.16;100500.25;6186855;23;20100;-81
2022/04/23 00:02:25;;;;;;;38.42;25.60;;;;;;;9.34;79.12;100498.53;6186531;23;20442;-82
2022/04/23 00:04:51;;;;;;;40.13;25.40;;;;;;;9.24;79.46;100476.81;6159335;23;20032;-81
2022/04/23 00:07:16;;;;;;;38.38;25.65;;;;;;;9.34;79.13;100492.53;6160496;23;20005;-81
2022/04/23 00:09:41;;;;;;;39.63;27.17;;;;;;;9.29;79.32;100489.44;6187151;23;20476;-80
2022/04/23 00:12:08;;;;;;;38.88;25.90;;;;;;;9.26;79.44;100498.19;6186697;23;20005;-81
2022/04/23 00:14:34;;;;;;;37.55;26.85;;;;;;;9.20;79.69;100501.13;6186601;23;20005;-81
2022/04/23 00:17:00;;;;;;;39.88;27.95;;;;;;;9.16;80.11;100500.50;6186593;23;20012;-80
2022/04/23 00:19:26;;;;;;;40.03;27.75;;;;;;;9.10;80.29;100497.47;6186887;23;20009;-81
2022/04/23 00:21:51;;;;;;;42.60;26.90;;;;;;;9.03;80.27;100491.03;6159672;23;20079;-79
2022/04/23 00:24:17;;;;;;;42.83;28.10;;;;;;;9.00;80.66;100493.81;6186628;23;20001;-81
2022/04/23 00:26:42;;;;;;;48.92;28.80;;;;;;;9.06;80.69;100496.84;6159810;23;20005;-80
2022/04/23 00:29:10;;;;;;;40.60;28.55;;;;;;;8.84;80.88;100471.56;6186785;23;20001;-80
2022/04/23 00:31:36;;;;;;;41.42;28.58;;;;;;;9.02;80.75;100500.50;6186300;23;20012;-80
2022/04/23 00:34:02;;;;;;;43.80;28.33;;;;;;;8.97;80.96;100500.00;6186945;23;20005;-80
2022/04/23 00:36:28;;;;;;;44.55;28.40;;;;;;;8.92;81.37;100496.84;6186695;23;20029;-80
2022/04/23 00:38:53;;;;;;;45.15;28.23;;;;;;;8.71;81.43;100457.81;6186773;23;20426;-80
2022/04/23 00:44:06;;;;;;;45.20;29.58;;;;;;;8.87;81.98;100494.56;6186627;23;20020;-81
2022/04/23 00:46:32;;;;;;;45.38;30.58;;;;;;;8.87;81.79;100504.03;6186447;23;20009;-79
2022/04/23 00:49:02;;;;;;;51.25;31.63;;;;;;;8.87;82.20;100492.00;6186736;23;20326;-79
2022/04/23 00:51:30;;;;;;;49.65;30.38;;;;;;;8.69;82.21;100472.53;6186499;23;20001;-80
2022/04/23 00:54:04;;;;;;;46.78;31.30;;;;;;;8.89;82.27;100495.31;6186731;23;20092;-80
2022/04/23 00:56:31;;;;;;;52.55;31.15;;;;;;;8.86;82.39;100490.34;6186628;23;20090;-80
2022/04/23 00:58:57;;;;;;;46.88;30.52;;;;;;;8.83;82.25;100492.25;6186183;23;20009;-80
2022/04/23 01:01:24;;;;;;;50.92;31.85;;;;;;;8.85;82.50;100493.03;6159845;23;20437;-79
2022/04/23 01:03:51;;;;;;;51.85;32.58;;;;;;;8.75;82.59;100479.03;6186394;23;20001;-80
2022/04/23 01:06:18;;;;;;;53.33;33.92;;;;;;;8.87;82.68;100504.03;6186630;23;20380;-79
2022/04/23 01:08:44;;;;;;;54.53;34.33;;;;;;;8.77;82.88;100488.34;6185495;23;20016;-80
2022/04/23 01:11:10;;;;;;;51.45;33.30;;;;;;;8.79;82.55;100481.34;6186461;23;20005;-80
2022/04/23 01:13:35;;;;;;;54.65;34.40;;;;;;;8.80;82.89;100495.84;6186303;23;20029;-80
2022/04/23 01:16:05;;;;;;;57.03;33.95;;;;;;;8.81;82.93;100497.50;6186080;23;20051;-80
2022/04/23 01:18:31;;;;;;;58.40;36.28;;;;;;;8.75;83.01;100484.16;6186390;23;20108;-80
2022/04/23 01:20:59;;;;;;;52.92;33.95;;;;;;;8.72;83.23;100481.78;6186443;23;20115;-80
2022/04/23 01:23:25;;;;;;;53.55;35.35;;;;;;;8.73;83.51;100506.63;6185972;23;20005;-80
2022/04/23 01:25:53;;;;;;;63.45;36.20;;;;;;;8.63;83.69;100486.56;6186063;23;20076;-80
2022/04/23 01:28:23;;;;;;;57.40;35.60;;;;;;;8.70;83.96;100496.50;6186058;23;20060;-80
2022/04/23 01:30:50;;;;;;;59.03;35.92;;;;;;;8.51;84.00;100473.63;6160064;23;20500;-80
2022/04/23 01:33:21;;;;;;;57.55;35.90;;;;;;;8.67;84.03;100504.44;6185723;23;20001;-79
2022/04/23 01:35:47;;;;;;;63.40;37.13;;;;;;;8.65;84.11;100495.94;6186041;23;20060;-79
2022/04/23 01:38:13;;;;;;;61.35;36.58;;;;;;;8.45;84.17;100472.22;6186048;23;20009;-79
2022/04/23 01:40:39;;;;;;;60.92;37.03;;;;;;;8.57;84.40;100494.69;6158399;23;20075;-80
2022/04/23 01:43:05;;;;;;;60.83;37.65;;;;;;;8.45;84.61;100482.53;6185927;23;20013;-80
2022/04/23 01:45:31;;;;;;;64.68;39.55;;;;;;;8.57;84.56;100506.72;6186237;23;20009;-80
2022/04/23 01:47:56;;;;;;;68.47;39.08;;;;;;;8.29;84.83;100459.44;6185582;23;20009;-80
2022/04/23 01:50:22;;;;;;;65.78;39.45;;;;;;;8.49;85.11;100511.50;6185859;23;20011;-80
2022/04/23 01:52:47;;;;;;;71.22;40.35;;;;;;;8.49;85.52;100508.91;6185664;23;20048;-80
2022/04/23 01:55:13;;;;;;;71.28;39.38;;;;;;;8.32;85.33;100487.53;6186189;23;20048;-80
2022/04/23 01:57:41;;;;;;;65.20;40.05;;;;;;;8.29;85.60;100474.03;6186050;23;20005;-80
2022/04/23 02:00:10;;;;;;;63.05;39.45;;;;;;;8.37;86.10;100491.63;6186005;23;20339;-79
2022/04/23 02:02:37;;;;;;;72.53;41.58;;;;;;;8.40;85.88;100496.59;6185577;23;20001;-80
2022/04/23 02:05:03;;;;;;;64.95;38.88;;;;;;;8.38;86.01;100508.72;6186147;23;20323;-80
2022/04/23 02:07:29;;;;;;;69.68;41.95;;;;;;;8.15;86.41;100471.44;6186057;23;20004;-80
2022/04/23 02:09:54;;;;;;;71.75;43.10;;;;;;;8.40;86.56;100512.03;6186027;23;20411;-82
2022/04/23 02:12:19;;;;;;;71.70;42.10;;;;;;;8.39;86.36;100505.25;6185831;23;20028;-80
2022/04/23 02:14:44;;;;;;;71.13;43.60;;;;;;;8.41;86.48;100514.50;6185722;23;20462;-79
2022/04/23 02:17:33;;;;;;;76.95;43.17;;;;;;;8.40;86.44;100512.84;6183659;22;20023;-79
2022/04/23 02:20:11;;;;;;;76.38;44.95;;;;;;;8.37;86.88;100512.22;6185611;23;20025;-80
2022/04/23 02:22:44;;;;;;;80.40;44.75;;;;;;;8.29;87.02;100513.47;6185696;23;20001;-79
2022/04/23 02:25:17;;;;;;;80.30;45.80;;;;;;;7.80;87.06;100430.63;6185498;23;20059;-79
2022/04/23 02:27:51;;;;;;;77.15;43.58;;;;;;;8.27;87.08;100511.91;6185474;23;20005;-79
2022/04/23 02:30:21;;;;;;;79.10;43.70;;;;;;;7.51;87.40;100409.16;6159192;23;20431;-79
2022/04/23 02:33:04;;;;;;;83.07;45.80;;;;;;;7.09;87.72;100336.19;6185239;22;20024;-79
2022/04/23 02:35:34;;;;;;;76.70;45.60;;;;;;;8.25;87.87;100519.69;6183723;23;20016;-80
2022/04/23 02:38:01;;;;;;;82.50;45.40;;;;;;;7.56;88.04;100411.44;6185382;23;20005;-78
2022/04/23 02:40:28;;;;;;;85.88;45.97;;;;;;;8.19;88.15;100512.34;6185655;23;20012;-79
2022/04/23 02:42:56;;;;;;;83.30;46.67;;;;;;;8.17;88.33;100516.75;6185936;23;20001;-81
2022/04/23 02:45:23;;;;;;;80.05;45.28;;;;;;;7.97;88.44;100481.06;6185251;23;20001;-81
2022/04/23 02:47:50;;;;;;;82.65;45.83;;;;;;;8.17;88.40;100511.59;6184994;23;20441;-80
2022/04/23 02:50:25;;;;;;;82.03;46.72;;;;;;;8.14;88.58;100514.34;6185699;23;20001;-79
2022/04/23 02:52:50;;;;;;;83.28;45.70;;;;;;;7.91;89.02;100479.66;6185309;23;20419;-79
2022/04/23 02:55:16;;;;;;;88.05;48.38;;;;;;;8.09;89.15;100510.41;6185441;23;20007;-80
2022/04/23 02:57:42;;;;;;;86.22;48.33;;;;;;;8.04;89.38;100516.59;6184992;23;20008;-80
2022/04/23 03:00:10;;;;;;;86.75;48.45;;;;;;;8.05;89.19;100512.28;6185135;23;20013;-80
2022/04/23 03:02:36;;;;;;;90.53;49.03;;;;;;;8.04;89.40;100505.50;6184860;23;20028;-79
2022/04/23 03:05:07;;;;;;;84.55;46.97;;;;;;;7.95;89.68;100485.44;6183816;23;20478;-80
2022/04/23 03:07:35;;;;;;;90.55;48.72;;;;;;;7.84;89.77;100474.97;6185483;23;20013;-80
2022/04/23 03:10:04;;;;;;;93.10;49.40;;;;;;;7.99;90.25;100503.22;6185399;23;20059;-80
2022/04/23 03:12:29;;;;;;;94.10;49.45;;;;;;;7.98;89.89;100506.69;6185562;23;20079;-80
2022/04/23 03:14:54;;;;;;;94.95;50.00;;;;;;;7.93;89.88;100490.69;6185094;23;20009;-80
2022/04/23 03:17:20;;;;;;;90.40;48.53;;;;;;;7.72;89.63;100454.19;6185523;23;20013;-80
2022/04/23 03:19:50;;;;;;;94.95;49.10;;;;;;;7.87;89.84;100478.22;6184277;23;20005;-79
2022/04/23 03:22:16;;;;;;;91.72;50.15;;;;;;;7.99;90.22;100500.63;6185541;23;20001;-80
2022/04/23 03:24:44;;;;;;;94.28;50.58;;;;;;;7.98;90.16;100496.41;6185064;23;20032;-80
2022/04/23 03:30:31;;;;;;;94.85;50.78;;;;;;;7.97;90.54;100496.50;6191704;22;20025;-80
2022/04/23 03:33:16;;;;;;;97.03;50.08;;;;;;;7.05;90.41;100347.53;6186958;23;20076;-78
2022/04/23 03:39:11;;;;;;;98.53;50.53;;;;;;;7.88;90.77;100492.72;6187183;23;20399;-80
2022/04/23 03:44:30;;;;;;;97.43;51.58;;;;;;;7.87;91.45;100483.34;6186954;22;20451;-81
2022/04/23 03:46:56;;;;;;;99.57;50.90;;;;;;;7.65;91.49;100447.72;6186900;23;20005;-80
2022/04/23 03:49:25;;;;;;;99.93;53.55;;;;;;;7.10;91.48;100360.97;6173328;23;20033;-80
2022/04/23 03:55:39;;;;;;;106.20;51.10;;;;;;;7.91;91.49;100476.28;6157123;23;20023;-81
2022/04/23 04:04:59;;;;;;;104.50;52.67;;;;;;;7.55;91.31;100413.19;6156135;23;20005;-80
2022/04/23 04:14:36;;;;;;;;;;;;;;;7.97;90.35;100481.06;6068495;23;20011;-81
2022/04/23 04:20:42;;;;;;;96.53;51.47;;;;;;;6.80;91.36;100289.06;6066359;23;20501;-81
2022/04/23 04:23:07;;;;;;;102.07;53.47;;;;;;;7.23;91.69;100363.66;6067100;23;20432;-80
2022/04/23 04:25:37;;;;;;;101.45;51.35;;;;;;;7.89;91.95;100470.41;6066893;23;20091;-79
2022/04/23 04:28:03;;;;;;;101.55;53.00;;;;;;;7.71;92.42;100444.81;6066345;23;20011;-80
2022/04/23 04:31:46;;;;;;;102.30;52.50;;;;;;;7.87;92.70;100467.94;6066773;23;20012;-80
2022/04/23 04:33:14;;;;;;;98.72;51.70;;;;;;;7.72;92.63;100437.94;6066909;23;20018;-79
2022/04/23 04:35:39;;;;;;;104.97;55.08;;;;;;;7.73;92.83;100437.84;6042385;23;20003;-81
2022/04/23 04:38:05;;;;;;;96.10;51.25;;;;;;;7.56;92.64;100409.72;6042650;23;20021;-79
2022/04/23 04:40:30;;;;;;;99.60;51.50;;;;;;;7.65;92.45;100422.03;6066397;23;20010;-79
2022/04/23 04:42:55;;;;;;;104.88;55.47;;;;;;;7.91;92.63;100461.69;6066618;23;20017;-79
2022/04/23 04:45:20;;;;;;;96.45;50.45;;;;;;;7.93;92.71;100461.59;6147391;23;20006;-82
2022/04/23 04:47:46;;;;;;;98.60;49.88;;;;;;;7.95;92.63;100465.72;6156210;23;20359;-81
2022/04/23 04:50:11;;;;;;;98.18;50.22;;;;;;;7.95;92.37;100464.88;6156251;23;20037;-81
2022/04/23 04:52:36;;;;;;;95.40;51.03;;;;;;;7.85;92.42;100438.06;6156452;23;20084;-81
2022/04/23 04:55:02;;;;;;;95.93;50.33;;;;;;;8.06;92.14;100475.38;6156963;23;20001;-81
2022/04/23 04:57:27;;;;;;;98.55;54.20;;;;;;;8.06;91.87;100472.81;6156380;23;20012;-78
2022/04/23 04:59:52;;;;;;;97.00;50.17;;;;;;;8.07;91.82;100469.34;6129866;23;20026;-79
2022/04/23 05:02:20;;;;;;;97.78;51.10;;;;;;;8.15;91.71;100472.25;6156324;23;20005;-79
2022/04/23 05:04:45;;;;;;;93.88;50.75;;;;;;;7.86;91.48;100421.72;6156189;23;20025;-78
2022/04/23 05:07:11;;;;;;;100.72;49.33;;;;;;;8.04;91.57;100444.59;6156310;23;20006;-78
2022/04/23 05:09:48;;;;;;;95.65;49.60;;;;;;;7.19;91.09;100306.53;6178717;22;20028;-81
2022/04/23 05:12:19;;;;;;;92.57;48.00;;;;;;;7.89;90.97;100408.69;6186270;23;20076;-81
2022/04/23 05:14:57;;;;;;;97.32;49.55;;;;;;;7.68;90.70;100365.34;6186339;23;20382;-81
2022/04/23 05:17:39;;;;;;;92.60;49.65;;;;;;;7.27;90.33;100287.25;6185666;23;20013;-78
2022/04/23 05:20:11;;;;;;;88.18;47.25;;;;;;;7.32;90.08;100287.81;6185968;23;20001;-80
2022/04/23 05:22:46;;;;;;;91.38;49.67;;;;;;;7.87;89.76;100372.81;6185936;23;20007;-80
2022/04/23 05:29:18;;;;;;;88.65;47.30;;;;;;;8.80;88.90;100479.59;6038430;23;20333;-78
2022/04/23 05:31:53;;;;;;;91.25;48.28;;;;;;;8.27;88.52;100381.53;6037574;23;20386;-79
2022/04/23 05:34:28;;;;;;;88.07;47.85;;;;;;;8.23;88.12;100356.06;6013838;23;20011;-80
2022/04/23 05:36:54;;;;;;;84.55;46.22;;;;;;;8.38;87.70;100369.78;6037250;23;20079;-79
2022/04/23 05:39:19;;;;;;;80.50;45.92;;;;;;;8.28;87.20;100344.59;6037487;23;20469;-79
2022/04/23 05:42:08;;;;;;;85.18;46.22;;;;;;;8.79;86.89;100419.53;6037074;23;20018;-81
2022/04/23 05:44:36;;;;;;;95.47;50.13;;;;;;;8.90;86.35;100418.88;6037389;23;20124;-81
2022/04/23 05:47:08;;;;;;;93.82;48.78;;;;;;;8.98;86.11;100415.81;6037350;23;20011;-81
2022/04/23 05:49:43;;;;;;;82.22;45.47;;;;;;;9.54;85.15;100419.09;6037444;23;20011;-81
2022/04/23 05:52:21;;;;;;;77.40;45.45;;;;;;;10.87;81.34;100478.06;6036585;23;20075;-82
2022/04/23 05:54:47;;;;;;;77.07;44.75;;;;;;;11.37;77.24;100412.44;5990935;23;20323;-82
2022/04/23 05:57:38;;;;;;;70.05;42.10;;;;;;;11.52;73.59;100311.41;6037205;23;20018;-82
2022/04/23 06:00:24;;;;;;;69.72;41.25;;;;;;;12.34;71.99;100343.91;6037446;23;20014;-79
2022/04/23 06:02:50;;;;;;;61.88;39.85;;;;;;;13.19;68.52;100411.47;6037240;23;20446;-80
2022/04/23 06:05:56;;;;;;;62.05;39.88;;;;;;;13.89;68.01;100469.75;6115323;23;20004;-80
2022/04/23 06:08:41;;;;;;;62.38;38.20;;;;;;;13.84;67.37;100405.25;6183506;23;20017;-79
2022/04/23 06:11:06;;;;;;;59.80;37.50;;;;;;;14.40;63.98;100459.38;6185689;23;20025;-80
2022/04/23 06:13:32;;;;;;;62.58;38.95;;;;;;;14.47;63.23;100447.56;6186046;23;20419;-80
2022/04/23 06:15:57;;;;;;;61.92;39.15;;;;;;;14.88;62.48;100456.97;6185618;23;20427;-81
2022/04/23 06:18:22;;;;;;;61.40;39.35;;;;;;;15.08;60.68;100465.66;6185579;23;20374;-81
2022/04/23 06:20:48;;;;;;;57.33;37.38;;;;;;;15.41;60.47;100461.84;6186126;23;20001;-81
2022/04/23 06:23:16;;;;;;;56.88;36.85;;;;;;;15.64;58.26;100433.81;6185666;23;19997;-80
2022/04/23 06:25:42;;;;;;;59.08;37.33;;;;;;;16.00;58.18;100455.66;6185838;23;20144;-81
2022/04/23 06:28:10;;;;;;;54.40;36.15;;;;;;;16.16;56.57;100449.03;6159445;23;20091;-81
2022/04/23 06:30:39;;;;;;;56.42;36.90;;;;;;;16.26;56.62;100419.38;6185923;23;20076;-80
2022/04/23 06:33:05;;;;;;;57.38;35.90;;;;;;;16.72;55.36;100453.38;6185537;23;20009;-80
2022/04/23 06:35:38;;;;;;;58.35;37.58;;;;;;;16.71;54.59;100386.53;6185856;23;20366;-88
2022/04/23 06:38:04;;;;;;;53.42;35.53;;;;;;;17.40;53.03;100457.19;6185473;23;20009;-81
2022/04/23 06:40:29;;;;;;;55.67;35.72;;;;;;;17.81;52.65;100461.94;6185815;23;20125;-81
2022/04/23 06:42:54;;;;;;;54.50;36.90;;;;;;;17.61;51.87;100453.44;6186224;23;20005;-80
2022/04/23 06:45:20;;;;;;;52.15;35.72;;;;;;;17.62;52.20;100452.47;6185760;23;20056;-80
2022/04/23 06:50:11;;;;;;;55.50;35.67;;;;;;;17.40;51.47;100412.81;6184700;22;20103;-80
2022/04/23 06:52:49;;;;;;;;;;;;;;;;;;;;;
2022/04/23 06:55:33;;;;;;;55.70;36.97;;;;;;;16.98;52.58;100316.06;6183116;22;20096;-80
2022/04/23 07:02:13;;;;;;;51.17;36.70;;;;;;;17.26;52.00;100300.31;6185000;23;20024;-81
2022/04/23 07:05:02;;;;;;;52.67;35.50;;;;;;;18.36;50.48;100449.38;6038261;23;20071;-81
2022/04/23 07:07:36;;;;;;;54.10;36.25;;;;;;;17.75;50.30;100291.81;6037960;23;20012;-81
2022/04/23 07:10:08;;;;;;;54.35;36.33;;;;;;;17.47;49.61;100285.09;6038652;23;20524;-81
2022/04/23 07:12:45;;;;;;;55.33;35.42;;;;;;;17.87;50.26;100391.63;6038623;23;20082;-82
2022/04/23 07:15:10;;;;;;;56.05;36.33;;;;;;;16.32;51.86;100295.50;6041500;23;20011;-82
2022/04/23 07:17:54;;;;;;;56.33;38.15;;;;;;;16.21;54.96;100452.84;6038475;23;20007;-82
2022/04/23 07:26:07;;;;;;;57.95;38.38;;;;;;;13.27;61.42;100348.59;6174810;22;20027;-81
2022/04/23 07:42:45;;;;;;;67.97;39.15;;;;;;;12.68;65.08;100329.13;6186959;23;20043;-80
2022/04/23 07:45:11;;;;;;;61.05;38.80;;;;;;;12.19;64.98;100244.13;6187020;23;20015;-81
2022/04/23 07:48:32;;;;;;;65.90;41.47;;;;;;;13.39;64.75;100439.22;6186553;23;20045;-81
2022/04/23 07:56:36;;;;;;;66.30;39.38;;;;;;;12.92;64.39;100324.56;6154242;23;20017;-81
2022/04/23 08:13:00;;;;;;;68.47;39.78;;;;;;;13.49;62.70;100307.81;6191957;22;20286;-80
2022/04/23 08:15:33;;;;;;;68.97;39.92;;;;;;;13.17;62.30;100262.94;6156630;23;20332;-80
2022/04/23 08:21:35;;;;;;;60.72;39.22;;;;;;;13.78;61.51;100343.50;6197006;22;20041;-80
2022/04/23 08:24:44;;;;;;;66.90;38.08;;;;;;;14.39;61.99;100407.56;6160117;23;20009;-80
2022/04/23 08:27:27;;;;;;;64.47;39.60;;;;;;;14.09;60.91;100339.09;6186875;23;20069;-80
2022/04/23 08:33:06;;;;;;;60.20;39.03;;;;;;;14.43;60.62;100326.63;6186988;23;20125;-80
2022/04/23 08:43:01;;;;;;;61.72;36.97;;;;;;;14.97;58.70;100389.53;6188018;22;20094;-79
2022/04/23 08:45:35;;;;;;;56.28;37.45;;;;;;;14.74;59.46;100365.53;6186026;23;20339;-78
2022/04/23 08:48:14;;;;;;;56.25;38.22;;;;;;;14.26;58.93;100302.13;6159225;23;20462;-82
2022/04/23 08:50:59;;;;;;;57.30;37.25;;;;;;;13.84;59.14;100244.31;6124515;23;20010;-82
2022/04/23 08:53:46;;;;;;;60.33;37.65;;;;;;;14.17;58.52;100296.91;6124655;23;20010;-80
2022/04/23 08:56:26;;;;;;;57.22;36.65;;;;;;;14.42;58.04;100324.97;6124308;23;20181;-81
2022/04/23 08:58:52;;;;;;;56.40;36.22;;;;;;;14.59;57.69;100346.94;6124146;23;20017;-81
2022/04/23 09:01:18;;;;;;;57.05;38.50;;;;;;;15.23;58.78;100414.03;6037623;23;20079;-79
2022/04/23 09:03:55;;;;;;;58.88;38.08;;;;;;;14.89;57.78;100309.63;6014530;23;20007;-78
2022/04/23 09:06:59;;;;;;;54.88;35.88;;;;;;;14.63;56.59;100234.78;6037636;23;20043;-78
2022/04/23 09:09:32;;;;;;;55.90;36.97;;;;;;;14.88;55.67;100225.59;6037793;23;20015;-78
2022/04/23 09:12:07;;;;;;;60.67;37.00;;;;;;;15.86;55.15;100349.34;6041957;23;20021;-76
2022/04/23 09:14:38;;;;;;;53.22;36.72;;;;;;;15.31;54.46;100250.28;6139229;23;20017;-76
2022/04/23 09:25:58;;;;;;;57.55;37.95;;;;;;;16.06;55.36;100308.41;6155552;23;20024;-77
2022/04/23 09:28:30;;;;;;;59.92;40.22;;;;;;;16.47;53.26;100333.16;6156380;23;20076;-77
2022/04/23 09:31:29;;;;;;;63.53;40.50;;;;;;;17.03;52.41;100409.53;6179679;22;20036;-78
2022/04/23 09:33:57;;;;;;;59.42;39.72;;;;;;;15.98;52.76;100262.25;6186128;23;20103;-79
2022/04/23 09:36:56;;;;;;;58.50;38.92;;;;;;;16.24;53.00;100267.59;6185978;23;20005;-76
2022/04/23 09:39:39;;;;;;;59.58;40.25;;;;;;;16.50;52.77;100291.13;6185432;23;20055;-76
2022/04/23 09:42:15;;;;;;;59.55;40.70;;;;;;;17.12;52.13;100406.03;6185629;23;20055;-77
2022/04/23 09:45:09;;;;;;;63.85;41.47;;;;;;;16.48;51.79;100310.50;6185976;23;20080;-77
2022/04/23 09:50:40;;;;;;;64.13;41.20;;;;;;;17.07;52.94;100410.88;6185618;22;20474;-76
2022/04/23 09:53:21;;;;;;;57.97;41.58;;;;;;;16.94;52.78;100389.56;6185627;23;20009;-76
2022/04/23 09:56:11;;;;;;;63.10;43.47;;;;;;;17.36;52.69;100408.84;6185626;23;20012;-78
2022/04/23 09:58:37;;;;;;;61.75;42.90;;;;;;;16.62;51.91;100341.31;6185554;23;20004;-79
2022/04/23 10:01:13;;;;;;;63.35;45.00;;;;;;;16.73;52.46;100392.44;6185760;23;20012;-78
2022/04/23 10:03:44;;;;;;;60.20;42.63;;;;;;;16.39;54.56;100359.09;6186056;23;20331;-80
2022/04/23 10:06:13;;;;;;;60.22;42.70;;;;;;;16.51;53.17;100396.22;6185466;23;20005;-79
2022/04/23 10:08:42;;;;;;;60.03;41.15;;;;;;;16.27;53.59;100408.00;6185433;23;20005;-79
2022/04/23 10:11:25;;;;;;;68.30;44.60;;;;;;;16.13;54.33;100405.88;6185618;23;20024;-80
2022/04/23 10:14:12;;;;;;;62.72;43.30;;;;;;;15.78;55.09;100389.09;6185232;23;20011;-80
2022/04/23 10:16:39;;;;;;;62.00;42.28;;;;;;;15.86;56.21;100401.41;6185706;23;20055;-80
2022/04/23 10:19:06;;;;;;;63.25;41.88;;;;;;;16.03;55.86;100400.69;6185221;23;20005;-78
2022/04/23 10:21:44;;;;;;;63.45;43.10;;;;;;;16.08;55.07;100389.84;6185518;23;20485;-78
2022/04/23 10:24:31;;;;;;;66.38;42.58;;;;;;;16.03;55.05;100360.81;6185585;23;20083;-78
2022/04/23 10:27:07;;;;;;;65.95;42.60;;;;;;;16.38;54.82;100393.13;6185551;23;20009;-79
2022/04/23 10:29:34;;;;;;;60.60;41.83;;;;;;;16.39;53.62;100363.50;6185495;23;20079;-79
2022/04/23 10:32:17;;;;;;;66.32;43.75;;;;;;;16.71;54.82;100387.34;6185860;23;20400;-79
2022/04/23 10:34:43;;;;;;;61.50;41.17;;;;;;;16.68;52.43;100378.97;6185543;23;20005;-79
2022/04/23 10:37:12;;;;;;;61.42;42.60;;;;;;;16.62;53.51;100383.00;6185515;23;20063;-80
2022/04/23 10:39:37;;;;;;;68.32;44.10;;;;;;;16.64;53.06;100379.28;6185817;23;20009;-80
2022/04/23 10:42:02;;;;;;;66.53;45.40;;;;;;;16.70;54.26;100374.47;6184976;23;20092;-79
2022/04/23 10:44:34;;;;;;;68.32;44.83;;;;;;;15.96;53.35;100219.09;6185016;22;20013;-79
2022/04/23 10:46:59;;;;;;;62.92;44.42;;;;;;;16.30;51.71;100264.38;6185339;23;20006;-78
2022/04/23 10:49:40;;;;;;;63.85;43.35;;;;;;;16.02;52.65;100215.91;6185969;22;20449;-80
2022/04/23 10:52:34;;;;;;;65.35;44.28;;;;;;;17.27;52.85;100377.63;6185518;23;20064;-78
2022/04/23 10:55:00;;;;;;;70.25;44.13;;;;;;;17.18;51.56;100384.53;6185683;23;20435;-81
2022/04/23 11:01:00;;;;;;;66.88;43.58;;;;;;;16.24;53.92;100272.00;6065504;23;20007;-80
2022/04/23 11:03:30;;;;;;;65.25;43.60;;;;;;;16.75;51.89;100380.06;6065430;23;20017;-81
2022/04/23 11:12:27;;;;;;;63.65;43.42;;;;;;;17.24;51.67;100378.75;6065694;23;20030;-79
2022/04/23 11:15:15;;;;;;;68.25;46.78;;;;;;;17.28;51.59;100374.84;6064821;23;20062;-79
2022/04/23 11:21:34;;;;;;;59.67;42.42;;;;;;;17.70;51.26;100369.81;6065209;23;20175;-80
2022/04/23 11:38:32;;;;;;;;;;;;;;;;;;;;;
2022/04/23 12:06:14;;;;;;;65.50;42.05;;;;;;;16.73;49.67;100178.63;6190533;22;20750;-78
2022/04/23 12:09:35;;;;;;;61.25;41.42;;;;;;;17.71;50.38;100334.06;6186287;23;20382;-78
2022/04/23 12:18:41;;;;;;;63.58;44.60;;;;;;;17.78;49.45;100333.28;6190511;22;20032;-79
2022/04/23 12:22:06;;;;;;;64.80;43.88;;;;;;;17.68;49.86;100334.34;6186879;23;20012;-79
2022/04/23 13:09:11;;;;;;;55.25;37.97;;;;;;;18.32;47.17;100278.97;6191254;22;20036;-81
2022/04/23 13:12:32;;;;;;;51.72;36.72;;;;;;;18.43;46.06;100283.06;6156352;23;20014;-79
2022/04/23 13:15:01;;;;;;;52.03;35.53;;;;;;;17.52;45.82;100125.41;6179662;23;20048;-80
2022/04/23 13:24:33;;;;;;;51.35;33.33;;;;;;;18.16;46.46;100173.56;6195042;22;20242;-80
2022/04/23 13:26:58;;;;;;;49.95;35.50;;;;;;;17.91;45.68;100115.25;6186177;23;20013;-80
2022/04/23 13:29:38;;;;;;;56.15;36.47;;;;;;;17.93;45.57;100124.56;6159852;23;20028;-79
2022/04/23 13:32:04;;;;;;;51.30;35.50;;;;;;;18.63;45.64;100255.63;6159279;23;20024;-80
2022/04/23 13:34:32;;;;;;;51.00;34.58;;;;;;;18.75;45.55;100263.19;6186101;23;20407;-79
2022/04/23 13:40:48;;;;;;;44.85;30.58;;;;;;;19.08;46.47;100266.63;6185933;23;20024;-79
2022/04/23 13:43:17;;;;;;;48.28;33.55;;;;;;;18.32;45.23;100155.28;6186318;23;20005;-79
2022/04/23 13:45:44;;;;;;;47.88;33.35;;;;;;;18.76;44.94;100247.31;6185899;23;20005;-79
2022/04/23 13:51:47;;;;;;;52.15;33.50;;;;;;;18.04;45.43;100110.34;6037657;23;20022;-79
2022/04/23 13:54:36;;;;;;;49.80;32.53;;;;;;;18.83;45.09;100227.38;6037836;23;20011;-84
2022/04/23 13:57:48;;;;;;;47.30;31.98;;;;;;;18.95;45.12;100258.44;6037793;23;20452;-86
2022/04/23 14:00:21;;;;;;;50.53;33.10;;;;;;;18.76;45.44;100220.34;6014052;23;20382;-85
2022/04/23 14:12:09;;;;;;;51.63;32.03;;;;;;;18.67;45.07;100132.41;6167623;22;20090;-79
2022/04/23 14:24:26;;;;;;;43.45;29.40;;;;;;;18.19;43.84;100084.38;6185716;23;20068;-78
2022/04/23 14:33:59;;;;;;;48.63;31.45;;;;;;;18.52;43.77;100080.78;6122422;23;20049;-78
2022/04/23 14:36:34;;;;;;;47.38;31.27;;;;;;;18.45;43.59;100064.09;6124044;23;20013;-78
2022/04/23 14:39:00;;;;;;;45.08;31.20;;;;;;;18.57;43.92;100107.22;6146666;23;20014;-78
2022/04/23 14:41:38;;;;;;;45.92;31.10;;;;;;;18.11;43.58;100072.16;6123788;23;20010;-78
2022/04/23 14:44:10;;;;;;;43.97;29.33;;;;;;;17.94;43.84;100068.72;6124189;23;20089;-80
2022/04/23 14:46:44;;;;;;;48.08;30.88;;;;;;;18.25;43.54;100151.69;6123771;23;20336;-78
2022/04/23 14:55:34;;;;;;;42.83;28.48;;;;;;;18.61;43.21;100189.59;6065876;23;20051;-82
2022/04/23 14:58:00;;;;;;;40.58;25.85;;;;;;;18.63;42.93;100124.88;6065570;23;20397;-80
2022/04/23 15:00:26;;;;;;;40.22;26.77;;;;;;;19.47;41.99;100198.63;6065650;23;20018;-83
2022/04/23 15:02:52;;;;;;;40.83;26.92;;;;;;;19.61;42.08;100211.03;6065512;23;20007;-84
2022/04/23 15:05:19;;;;;;;40.10;27.58;;;;;;;19.40;41.65;100201.09;6065768;23;20026;-84
2022/04/23 15:07:47;;;;;;;42.78;28.13;;;;;;;19.28;42.34;100176.28;6065750;23;20011;-81
2022/04/23 15:10:13;;;;;;;47.13;28.60;;;;;;;19.16;41.92;100193.31;6082572;23;20002;-84
2022/04/23 15:12:38;;;;;;;46.25;29.63;;;;;;;18.73;42.36;100145.66;6094156;23;20073;-79
2022/04/23 15:15:05;;;;;;;46.58;32.17;;;;;;;18.70;42.29;100187.84;6094478;23;20455;-78
2022/04/23 15:17:37;;;;;;;43.03;30.23;;;;;;;18.35;44.24;100197.59;6093478;23;20070;-78
2022/04/23 15:20:04;;;;;;;47.88;32.83;;;;;;;18.25;43.96;100219.63;6094572;23;20069;-78
2022/04/23 15:22:29;;;;;;;48.97;32.75;;;;;;;17.92;44.52;100208.31;6094460;23;20344;-78
2022/04/23 15:24:55;;;;;;;47.40;32.28;;;;;;;17.73;44.92;100188.50;6095890;23;20133;-78
2022/04/23 15:27:23;;;;;;;49.05;32.58;;;;;;;17.77;45.60;100187.19;6096388;23;20118;-79
2022/04/23 15:29:49;;;;;;;45.38;31.40;;;;;;;18.03;45.93;100208.81;6162626;23;20367;-78
2022/04/23 15:32:17;;;;;;;46.85;30.50;;;;;;;17.83;44.73;100183.13;6187660;23;20001;-78
2022/04/23 15:34:44;;;;;;;43.17;29.83;;;;;;;17.83;44.48;100186.56;6187017;23;20001;-79
2022/04/23 15:37:12;;;;;;;42.58;29.20;;;;;;;18.10;45.05;100209.00;6187507;23;20005;-79
2022/04/23 15:39:37;;;;;;;43.58;30.80;;;;;;;18.07;44.90;100201.47;6186614;23;20084;-79
2022/04/23 15:42:06;;;;;;;47.53;31.25;;;;;;;18.16;43.89;100218.00;6187462;23;20438;-78
2022/04/23 15:44:33;;;;;;;44.75;30.17;;;;;;;18.10;44.80;100210.81;6187321;23;20017;-79
2022/04/23 15:47:02;;;;;;;44.08;30.88;;;;;;;18.16;45.35;100218.00;6187284;23;20005;-78
2022/04/23 15:49:27;;;;;;;47.15;30.77;;;;;;;17.95;44.23;100190.50;6187265;23;20009;-78
2022/04/23 15:51:52;;;;;;;46.53;29.95;;;;;;;18.04;44.05;100218.28;6186946;23;20501;-80
2022/04/23 15:54:19;;;;;;;42.92;30.15;;;;;;;17.98;44.81;100212.88;6160385;23;20012;-78